createdAt,value
2017-05-25T00:00:20.814Z,0
2017-05-25T00:01:30.431Z,0
2017-05-25T00:02:40.350Z,0
2017-05-25T00:03:50.963Z,0
2017-05-25T00:05:00.597Z,0
2017-05-25T00:06:10.515Z,0
2017-05-25T00:07:20.428Z,0
2017-05-25T00:08:30.043Z,0
2017-05-25T00:09:40.003Z,0
2017-05-25T00:10:49.919Z,0
2017-05-25T00:12:00.166Z,0
2017-05-25T00:13:10.083Z,0
2017-05-25T00:14:20.004Z,0
2017-05-25T00:15:29.626Z,0
2017-05-25T00:16:39.242Z,0
2017-05-25T00:17:49.765Z,0
2017-05-25T00:18:59.689Z,0
2017-05-25T00:20:09.301Z,0
2017-05-25T00:21:19.525Z,0
2017-05-25T00:22:29.436Z,0
2017-05-25T00:23:39.714Z,0
2017-05-25T00:24:49.068Z,0
2017-05-25T00:25:59.046Z,0
2017-05-25T00:27:08.948Z,0
2017-05-25T00:28:18.877Z,0
2017-05-25T00:29:28.640Z,0
2017-05-25T00:30:38.857Z,0
2017-05-25T00:31:49.071Z,0
2017-05-25T00:32:58.977Z,0
2017-05-25T00:34:08.589Z,0
2017-05-25T00:35:18.191Z,0
2017-05-25T00:36:28.107Z,0
2017-05-25T00:37:37.712Z,0
2017-05-25T00:38:47.341Z,0
2017-05-25T00:39:57.283Z,0
2017-05-25T00:41:07.616Z,0
2017-05-25T00:42:17.221Z,0
2017-05-25T00:43:27.169Z,0
2017-05-25T00:44:37.114Z,0
2017-05-25T00:45:46.731Z,0
2017-05-25T00:46:56.640Z,0
2017-05-25T00:48:05.950Z,0
2017-05-25T00:49:15.877Z,0
2017-05-25T00:50:25.813Z,0
2017-05-25T00:51:35.734Z,0
2017-05-25T00:52:45.811Z,0
2017-05-25T00:53:55.724Z,0
2017-05-25T00:55:05.961Z,0
2017-05-25T00:56:15.579Z,0
2017-05-25T00:57:25.494Z,0
2017-05-25T00:58:35.569Z,0
2017-05-25T00:59:45.785Z,0
2017-05-25T01:00:55.415Z,0
2017-05-25T01:02:05.332Z,0
2017-05-25T01:03:15.255Z,0
2017-05-25T01:04:24.969Z,0
2017-05-25T01:05:34.877Z,0
2017-05-25T01:06:44.783Z,0
2017-05-25T01:07:54.704Z,0
2017-05-25T01:09:04.324Z,0
2017-05-25T01:10:14.313Z,0
2017-05-25T01:11:23.919Z,0
2017-05-25T01:12:34.135Z,0
2017-05-25T01:13:44.361Z,0
2017-05-25T01:14:53.978Z,0
2017-05-25T01:16:04.202Z,0
2017-05-25T01:17:14.117Z,0
2017-05-25T01:18:24.428Z,0
2017-05-25T01:19:34.046Z,0
2017-05-25T01:20:43.333Z,0
2017-05-25T01:21:53.047Z,0
2017-05-25T01:23:02.948Z,0
2017-05-25T01:24:12.552Z,0
2017-05-25T01:25:22.160Z,0
2017-05-25T01:26:32.379Z,0
2017-05-25T01:27:42.951Z,0
2017-05-25T01:28:52.570Z,0
2017-05-25T01:30:02.519Z,0
2017-05-25T01:31:12.450Z,0
2017-05-25T01:32:22.071Z,0
2017-05-25T01:33:32.459Z,0
2017-05-25T01:34:42.388Z,0
2017-05-25T01:35:52.611Z,0
2017-05-25T01:37:02.884Z,0
2017-05-25T01:38:12.536Z,0
2017-05-25T01:39:22.169Z,0
2017-05-25T01:40:31.783Z,0
2017-05-25T01:41:42.002Z,0
2017-05-25T01:42:51.945Z,0
2017-05-25T01:44:01.259Z,0
2017-05-25T01:45:11.643Z,0
2017-05-25T01:46:21.556Z,0
2017-05-25T01:47:31.791Z,0
2017-05-25T01:48:41.715Z,0
2017-05-25T01:49:51.959Z,0
2017-05-25T01:51:01.737Z,0
2017-05-25T01:52:11.657Z,0
2017-05-25T01:53:21.896Z,0
2017-05-25T01:54:31.499Z,0
2017-05-25T01:55:41.714Z,0
2017-05-25T01:56:51.467Z,0
2017-05-25T01:58:01.393Z,0
2017-05-25T01:59:11.302Z,0
2017-05-25T02:00:20.915Z,0
2017-05-25T02:01:30.210Z,0
2017-05-25T02:02:40.430Z,0
2017-05-25T02:03:50.345Z,0
2017-05-25T02:05:00.289Z,0
2017-05-25T02:06:10.227Z,0
2017-05-25T02:07:19.840Z,0
2017-05-25T02:08:29.801Z,0
2017-05-25T02:09:39.126Z,0
2017-05-25T02:10:49.045Z,0
2017-05-25T02:11:59.268Z,0
2017-05-25T02:13:09.173Z,0
2017-05-25T02:14:18.770Z,0
2017-05-25T02:15:28.672Z,0
2017-05-25T02:16:38.284Z,0
2017-05-25T02:17:48.581Z,0
2017-05-25T02:18:57.883Z,0
2017-05-25T02:20:07.587Z,0
2017-05-25T02:21:17.498Z,0
2017-05-25T02:22:27.116Z,0
2017-05-25T02:23:37.033Z,0
2017-05-25T02:24:46.950Z,0
2017-05-25T02:25:57.032Z,0
2017-05-25T02:27:07.256Z,0
2017-05-25T02:28:17.183Z,0
2017-05-25T02:29:27.112Z,0
2017-05-25T02:30:37.043Z,0
2017-05-25T02:31:47.424Z,0
2017-05-25T02:32:57.647Z,0
2017-05-25T02:34:06.650Z,0
2017-05-25T02:35:16.254Z,0
2017-05-25T02:36:26.181Z,0
2017-05-25T02:37:36.405Z,0
2017-05-25T02:38:46.632Z,0
2017-05-25T02:39:56.538Z,0
2017-05-25T02:41:06.761Z,0
2017-05-25T02:42:16.992Z,0
2017-05-25T02:43:27.230Z,0
2017-05-25T02:44:37.139Z,0
2017-05-25T02:45:46.825Z,0
2017-05-25T02:46:57.088Z,0
2017-05-25T02:48:07.335Z,0
2017-05-25T02:49:16.987Z,0
2017-05-25T02:50:26.592Z,0
2017-05-25T02:51:36.501Z,0
2017-05-25T02:52:46.117Z,0
2017-05-25T02:53:56.332Z,0
2017-05-25T02:55:06.256Z,0
2017-05-25T02:56:15.869Z,0
2017-05-25T02:57:25.462Z,0
2017-05-25T02:58:35.082Z,0
2017-05-25T02:59:44.694Z,0
2017-05-25T03:00:54.010Z,0
2017-05-25T03:02:03.908Z,0
2017-05-25T03:03:13.827Z,0
2017-05-25T03:04:23.758Z,0
2017-05-25T03:05:33.364Z,0
2017-05-25T03:06:43.629Z,0
2017-05-25T03:07:53.551Z,0
2017-05-25T03:09:02.622Z,0
2017-05-25T03:10:11.918Z,0
2017-05-25T03:11:21.519Z,0
2017-05-25T03:12:31.425Z,0
2017-05-25T03:13:41.636Z,0
2017-05-25T03:14:51.888Z,0
2017-05-25T03:16:01.793Z,0
2017-05-25T03:17:11.709Z,0
2017-05-25T03:18:21.322Z,0
2017-05-25T03:19:31.260Z,0
2017-05-25T03:20:41.167Z,0
2017-05-25T03:21:51.369Z,0
2017-05-25T03:23:01.288Z,0
2017-05-25T03:24:11.197Z,0
2017-05-25T03:25:21.124Z,0
2017-05-25T03:26:31.045Z,0
2017-05-25T03:27:40.964Z,0
2017-05-25T03:28:50.884Z,0
2017-05-25T03:30:00.650Z,0
2017-05-25T03:31:10.249Z,0
2017-05-25T03:32:20.186Z,0
2017-05-25T03:33:30.433Z,0
2017-05-25T03:34:40.371Z,0
2017-05-25T03:35:50.735Z,0
2017-05-25T03:37:00.337Z,0
2017-05-25T03:38:09.648Z,0
2017-05-25T03:39:19.261Z,0
2017-05-25T03:40:29.482Z,0
2017-05-25T03:41:39.705Z,0
2017-05-25T03:42:49.630Z,0
2017-05-25T03:43:59.552Z,0
2017-05-25T03:45:09.156Z,0
2017-05-25T03:46:19.126Z,0
2017-05-25T03:47:29.222Z,0
2017-05-25T03:48:38.843Z,0
2017-05-25T03:49:49.135Z,0
2017-05-25T03:50:58.443Z,0
2017-05-25T03:52:08.358Z,0
2017-05-25T03:53:18.423Z,0
2017-05-25T03:54:28.048Z,0
2017-05-25T03:55:37.645Z,0
2017-05-25T03:56:47.871Z,0
2017-05-25T03:57:57.789Z,0
2017-05-25T03:59:08.070Z,0
2017-05-25T04:00:17.741Z,5
2017-05-25T04:01:27.352Z,5
2017-05-25T04:02:37.014Z,5
2017-05-25T04:03:46.945Z,5
2017-05-25T04:04:57.545Z,5
2017-05-25T04:06:07.762Z,5
2017-05-25T04:07:17.689Z,5
2017-05-25T04:08:27.618Z,5
2017-05-25T04:09:37.536Z,5
2017-05-25T04:10:47.918Z,5
2017-05-25T04:11:57.845Z,5
2017-05-25T04:13:07.499Z,5
2017-05-25T04:14:17.420Z,5
2017-05-25T04:15:27.636Z,5
2017-05-25T04:16:37.652Z,10
2017-05-25T04:17:47.873Z,10
2017-05-25T04:18:57.486Z,10
2017-05-25T04:20:07.114Z,10
2017-05-25T04:21:17.107Z,10
2017-05-25T04:22:26.719Z,10
2017-05-25T04:23:36.959Z,10
2017-05-25T04:24:46.577Z,10
2017-05-25T04:25:55.871Z,10
2017-05-25T04:27:05.789Z,10
2017-05-25T04:28:15.714Z,10
2017-05-25T04:29:25.936Z,10
2017-05-25T04:30:35.859Z,15
2017-05-25T04:31:45.844Z,15
2017-05-25T04:32:55.764Z,15
2017-05-25T04:34:05.735Z,15
2017-05-25T04:35:15.983Z,15
2017-05-25T04:36:25.914Z,15
2017-05-25T04:37:36.138Z,15
2017-05-25T04:38:46.358Z,15
2017-05-25T04:39:56.584Z,15
2017-05-25T04:41:06.204Z,15
2017-05-25T04:42:16.126Z,20
2017-05-25T04:43:26.044Z,20
2017-05-25T04:44:35.642Z,20
2017-05-25T04:45:45.661Z,20
2017-05-25T04:46:55.873Z,20
2017-05-25T04:48:06.087Z,20
2017-05-25T04:49:16.035Z,20
2017-05-25T04:50:26.266Z,20
2017-05-25T04:51:36.174Z,20
2017-05-25T04:52:46.096Z,20
2017-05-25T04:53:56.027Z,25
2017-05-25T04:55:06.248Z,25
2017-05-25T04:56:15.561Z,20
2017-05-25T04:57:25.491Z,25
2017-05-25T04:58:34.477Z,25
2017-05-25T04:59:44.394Z,25
2017-05-25T05:00:54.625Z,25
2017-05-25T05:02:04.578Z,25
2017-05-25T05:03:14.953Z,25
2017-05-25T05:04:24.881Z,25
2017-05-25T05:05:34.516Z,25
2017-05-25T05:06:44.484Z,25
2017-05-25T05:07:54.744Z,25
2017-05-25T05:09:04.666Z,25
2017-05-25T05:10:14.590Z,35
2017-05-25T05:11:24.829Z,30
2017-05-25T05:12:34.819Z,25
2017-05-25T05:13:45.037Z,25
2017-05-25T05:14:55.304Z,30
2017-05-25T05:16:05.299Z,30
2017-05-25T05:17:15.520Z,25
2017-05-25T05:18:25.439Z,25
2017-05-25T05:19:35.346Z,30
2017-05-25T05:20:45.021Z,30
2017-05-25T05:21:54.941Z,25
2017-05-25T05:23:05.148Z,25
2017-05-25T05:24:15.071Z,35
2017-05-25T05:25:24.993Z,50
2017-05-25T05:26:35.384Z,35
2017-05-25T05:27:45.619Z,35
2017-05-25T05:28:55.856Z,85
2017-05-25T05:30:05.756Z,85
2017-05-25T05:31:15.071Z,55
2017-05-25T05:32:24.374Z,75
2017-05-25T05:33:33.983Z,40
2017-05-25T05:34:43.909Z,45
2017-05-25T05:35:52.993Z,65
2017-05-25T05:37:02.600Z,75
2017-05-25T05:38:12.959Z,50
2017-05-25T05:39:22.884Z,65
2017-05-25T05:40:32.808Z,75
2017-05-25T05:41:42.723Z,60
2017-05-25T05:42:52.341Z,65
2017-05-25T05:44:02.660Z,35
2017-05-25T05:45:11.971Z,55
2017-05-25T05:46:21.880Z,40
2017-05-25T05:47:32.102Z,40
2017-05-25T05:48:42.323Z,35
2017-05-25T05:49:52.254Z,70
2017-05-25T05:51:02.182Z,55
2017-05-25T05:52:12.163Z,105
2017-05-25T05:53:21.521Z,100
2017-05-25T05:54:31.457Z,55
2017-05-25T05:55:41.386Z,45
2017-05-25T05:56:51.296Z,35
2017-05-25T05:58:00.900Z,35
2017-05-25T05:59:11.185Z,55
2017-05-25T06:00:20.797Z,135
2017-05-25T06:01:30.470Z,125
2017-05-25T06:02:40.086Z,90
2017-05-25T06:03:49.723Z,55
2017-05-25T06:04:59.657Z,80
2017-05-25T06:06:09.594Z,65
2017-05-25T06:07:19.349Z,55
2017-05-25T06:08:29.296Z,65
2017-05-25T06:09:39.218Z,120
2017-05-25T06:10:48.841Z,165
2017-05-25T06:11:57.847Z,180
2017-05-25T06:13:08.323Z,185
2017-05-25T06:14:18.390Z,100
2017-05-25T06:15:28.638Z,45
2017-05-25T06:16:37.951Z,185
2017-05-25T06:17:48.152Z,190
2017-05-25T06:18:58.917Z,175
2017-05-25T06:20:08.986Z,200
2017-05-25T06:21:18.901Z,155
2017-05-25T06:22:29.125Z,195
2017-05-25T06:23:38.771Z,70
2017-05-25T06:24:48.542Z,60
2017-05-25T06:25:58.761Z,60
2017-05-25T06:27:08.672Z,65
2017-05-25T06:28:17.974Z,70
2017-05-25T06:29:27.293Z,70
2017-05-25T06:30:37.206Z,85
2017-05-25T06:31:47.118Z,55
2017-05-25T06:32:57.037Z,85
2017-05-25T06:34:06.974Z,50
2017-05-25T06:35:17.190Z,65
2017-05-25T06:36:26.916Z,70
2017-05-25T06:37:36.839Z,60
2017-05-25T06:38:46.756Z,60
2017-05-25T06:39:56.674Z,50
2017-05-25T06:41:06.898Z,45
2017-05-25T06:42:17.211Z,45
2017-05-25T06:43:26.833Z,55
2017-05-25T06:44:37.070Z,60
2017-05-25T06:45:47.009Z,80
2017-05-25T06:46:56.920Z,75
2017-05-25T06:48:06.066Z,70
2017-05-25T06:49:15.981Z,95
2017-05-25T06:50:25.342Z,110
2017-05-25T06:51:34.341Z,115
2017-05-25T06:52:43.650Z,135
2017-05-25T06:53:53.606Z,115
2017-05-25T06:55:03.515Z,105
2017-05-25T06:56:12.815Z,100
2017-05-25T06:57:22.818Z,110
2017-05-25T06:58:32.732Z,120
2017-05-25T06:59:43.107Z,130
2017-05-25T07:00:53.038Z,110
2017-05-25T07:02:02.673Z,145
2017-05-25T07:03:12.268Z,140
2017-05-25T07:04:22.484Z,145
2017-05-25T07:05:32.782Z,140
2017-05-25T07:06:42.698Z,140
2017-05-25T07:07:52.618Z,150
2017-05-25T07:09:02.548Z,160
2017-05-25T07:10:12.146Z,155
2017-05-25T07:11:21.921Z,160
2017-05-25T07:12:31.857Z,175
2017-05-25T07:13:41.466Z,190
2017-05-25T07:14:51.404Z,210
2017-05-25T07:16:01.621Z,230
2017-05-25T07:17:11.222Z,310
2017-05-25T07:18:21.140Z,440
2017-05-25T07:19:31.060Z,520
2017-05-25T07:20:40.990Z,545
2017-05-25T07:21:50.908Z,665
2017-05-25T07:23:01.134Z,655
2017-05-25T07:24:11.047Z,615
2017-05-25T07:25:20.652Z,620
2017-05-25T07:26:30.591Z,620
2017-05-25T07:27:40.220Z,540
2017-05-25T07:28:49.527Z,690
2017-05-25T07:29:59.175Z,690
2017-05-25T07:31:08.786Z,715
2017-05-25T07:32:18.397Z,720
2017-05-25T07:33:28.628Z,370
2017-05-25T07:34:38.019Z,890
2017-05-25T07:35:47.952Z,845
2017-05-25T07:36:57.567Z,845
2017-05-25T07:38:07.481Z,670
2017-05-25T07:39:17.403Z,840
2017-05-25T07:40:27.465Z,925
2017-05-25T07:41:37.711Z,880
2017-05-25T07:42:47.623Z,940
2017-05-25T07:43:57.238Z,945
2017-05-25T07:45:07.155Z,1020
2017-05-25T07:46:16.911Z,865
2017-05-25T07:47:27.159Z,840
2017-05-25T07:48:37.388Z,840
2017-05-25T07:49:47.684Z,910
2017-05-25T07:50:57.385Z,990
2017-05-25T07:52:07.764Z,905
2017-05-25T07:53:17.685Z,810
2017-05-25T07:54:27.911Z,865
2017-05-25T07:55:37.892Z,960
2017-05-25T07:56:48.117Z,1055
2017-05-25T07:57:57.728Z,1105
2017-05-25T07:59:07.672Z,1160
2017-05-25T08:00:16.979Z,1185
2017-05-25T08:01:27.272Z,1260
2017-05-25T08:02:36.895Z,1185
2017-05-25T08:03:47.466Z,1210
2017-05-25T08:04:57.453Z,1165
2017-05-25T08:06:07.696Z,1205
2017-05-25T08:07:17.938Z,1165
2017-05-25T08:08:27.557Z,1110
2017-05-25T08:09:37.693Z,1050
2017-05-25T08:10:47.606Z,1135
2017-05-25T08:11:57.571Z,1265
2017-05-25T08:13:07.500Z,1295
2017-05-25T08:14:17.111Z,1205
2017-05-25T08:15:27.358Z,1040
2017-05-25T08:16:36.977Z,1065
2017-05-25T08:17:46.933Z,990
2017-05-25T08:18:56.870Z,1035
2017-05-25T08:20:06.790Z,1110
2017-05-25T08:21:16.701Z,1100
2017-05-25T08:22:26.642Z,1120
2017-05-25T08:23:36.584Z,1240
2017-05-25T08:24:46.495Z,1310
2017-05-25T08:25:56.114Z,1235
2017-05-25T08:27:06.187Z,1050
2017-05-25T08:28:15.793Z,1110
2017-05-25T08:29:25.390Z,1165
2017-05-25T08:30:35.299Z,1125
2017-05-25T08:31:45.208Z,1200
2017-05-25T08:32:55.619Z,1180
2017-05-25T08:34:05.551Z,1080
2017-05-25T08:35:15.778Z,1260
2017-05-25T08:36:25.387Z,1375
2017-05-25T08:37:35.346Z,1250
2017-05-25T08:38:45.113Z,1075
2017-05-25T08:39:55.340Z,1055
2017-05-25T08:41:05.252Z,1000
2017-05-25T08:42:15.226Z,1180
2017-05-25T08:43:25.172Z,1285
2017-05-25T08:44:35.216Z,1345
2017-05-25T08:45:44.843Z,1245
2017-05-25T08:46:54.453Z,1110
2017-05-25T08:48:04.668Z,1065
2017-05-25T08:49:14.619Z,1105
2017-05-25T08:50:24.068Z,645
2017-05-25T08:51:34.316Z,195
2017-05-25T08:52:43.933Z,110
2017-05-25T08:53:54.167Z,90
2017-05-25T08:55:03.788Z,80
2017-05-25T08:56:14.203Z,75
2017-05-25T08:57:24.118Z,70
2017-05-25T08:58:34.344Z,70
2017-05-25T08:59:44.302Z,65
2017-05-25T09:00:54.234Z,55
2017-05-25T09:02:04.021Z,55
2017-05-25T09:03:13.926Z,55
2017-05-25T09:04:23.546Z,55
2017-05-25T09:05:33.157Z,50
2017-05-25T09:06:43.390Z,50
2017-05-25T09:07:53.701Z,50
2017-05-25T09:09:03.954Z,40
2017-05-25T09:10:14.189Z,40
2017-05-25T09:11:23.798Z,40
2017-05-25T09:12:33.717Z,40
2017-05-25T09:13:43.731Z,35
2017-05-25T09:14:53.647Z,35
2017-05-25T09:16:03.262Z,35
2017-05-25T09:17:13.169Z,35
2017-05-25T09:18:23.408Z,35
2017-05-25T09:19:33.686Z,35
2017-05-25T09:20:43.908Z,35
2017-05-25T09:21:53.510Z,35
2017-05-25T09:23:03.432Z,35
2017-05-25T09:24:13.036Z,35
2017-05-25T09:25:23.319Z,35
2017-05-25T09:26:32.936Z,35
2017-05-25T09:27:42.587Z,35
2017-05-25T09:28:52.822Z,35
2017-05-25T09:30:02.731Z,35
2017-05-25T09:31:12.031Z,30
2017-05-25T09:32:21.955Z,35
2017-05-25T09:33:31.877Z,35
2017-05-25T09:34:41.494Z,35
2017-05-25T09:35:51.426Z,35
2017-05-25T09:37:01.686Z,35
2017-05-25T09:38:11.287Z,35
2017-05-25T09:39:20.900Z,35
2017-05-25T09:40:30.519Z,35
2017-05-25T09:41:40.817Z,35
2017-05-25T09:42:51.046Z,35
2017-05-25T09:44:00.655Z,35
2017-05-25T09:45:10.268Z,35
2017-05-25T09:46:20.233Z,35
2017-05-25T09:47:29.851Z,30
2017-05-25T09:48:40.178Z,30
2017-05-25T09:49:49.475Z,30
2017-05-25T09:50:59.415Z,30
2017-05-25T09:52:08.790Z,25
2017-05-25T09:53:19.042Z,25
2017-05-25T09:54:28.994Z,30
2017-05-25T09:55:38.632Z,30
2017-05-25T09:56:48.856Z,30
2017-05-25T09:57:58.770Z,30
2017-05-25T09:59:08.400Z,30
2017-05-25T10:00:18.776Z,25
2017-05-25T10:01:28.688Z,25
2017-05-25T10:02:38.913Z,25
2017-05-25T10:03:48.568Z,25
2017-05-25T10:04:58.800Z,20
2017-05-25T10:06:08.870Z,20
2017-05-25T10:07:18.872Z,20
2017-05-25T10:08:29.097Z,25
2017-05-25T10:09:39.326Z,25
2017-05-25T10:10:48.939Z,25
2017-05-25T10:11:59.326Z,20
2017-05-25T10:13:09.245Z,20
2017-05-25T10:14:19.182Z,20
2017-05-25T10:15:28.794Z,20
2017-05-25T10:16:38.408Z,20
2017-05-25T10:17:47.873Z,25
2017-05-25T10:18:58.104Z,20
2017-05-25T10:20:07.419Z,20
2017-05-25T10:21:17.388Z,25
2017-05-25T10:22:27.321Z,25
2017-05-25T10:23:37.901Z,20
2017-05-25T10:24:48.215Z,20
2017-05-25T10:25:58.136Z,20
2017-05-25T10:27:08.075Z,20
2017-05-25T10:28:18.021Z,20
2017-05-25T10:29:28.271Z,20
2017-05-25T10:30:37.881Z,20
2017-05-25T10:31:47.813Z,20
2017-05-25T10:32:58.055Z,20
2017-05-25T10:34:07.376Z,20
2017-05-25T10:35:17.614Z,20
2017-05-25T10:36:27.545Z,20
2017-05-25T10:37:36.858Z,20
2017-05-25T10:38:46.168Z,20
2017-05-25T10:39:56.100Z,20
2017-05-25T10:41:06.432Z,20
2017-05-25T10:42:16.055Z,20
2017-05-25T10:43:25.989Z,20
2017-05-25T10:44:34.688Z,20
2017-05-25T10:45:44.942Z,15
2017-05-25T10:46:54.946Z,15
2017-05-25T10:48:05.167Z,15
2017-05-25T10:49:15.164Z,15
2017-05-25T10:50:25.085Z,15
2017-05-25T10:51:35.331Z,15
2017-05-25T10:52:45.719Z,20
2017-05-25T10:53:55.948Z,20
2017-05-25T10:55:05.939Z,15
2017-05-25T10:56:15.555Z,15
2017-05-25T10:57:25.317Z,15
2017-05-25T10:58:35.689Z,20
2017-05-25T10:59:45.618Z,20
2017-05-25T11:00:55.536Z,20
2017-05-25T11:02:05.144Z,20
2017-05-25T11:03:14.979Z,15
2017-05-25T11:04:24.887Z,15
2017-05-25T11:05:34.523Z,15
2017-05-25T11:06:44.482Z,15
2017-05-25T11:07:54.454Z,15
2017-05-25T11:09:04.394Z,15
2017-05-25T11:10:14.796Z,15
2017-05-25T11:11:24.421Z,15
2017-05-25T11:12:34.064Z,15
2017-05-25T11:13:44.361Z,15
2017-05-25T11:14:54.332Z,15
2017-05-25T11:16:04.409Z,15
2017-05-25T11:17:14.349Z,15
2017-05-25T11:18:24.572Z,15
2017-05-25T11:19:34.204Z,15
2017-05-25T11:20:44.122Z,15
2017-05-25T11:21:53.726Z,15
2017-05-25T11:23:03.943Z,15
2017-05-25T11:24:13.558Z,15
2017-05-25T11:25:23.473Z,15
2017-05-25T11:26:32.778Z,15
2017-05-25T11:27:42.807Z,15
2017-05-25T11:28:53.066Z,15
2017-05-25T11:30:02.409Z,15
2017-05-25T11:31:12.356Z,15
2017-05-25T11:32:21.981Z,15
2017-05-25T11:33:32.009Z,15
2017-05-25T11:34:41.976Z,15
2017-05-25T11:35:51.905Z,15
2017-05-25T11:37:01.826Z,15
2017-05-25T11:38:11.202Z,15
2017-05-25T11:39:21.439Z,15
2017-05-25T11:40:31.072Z,15
2017-05-25T11:41:40.995Z,15
2017-05-25T11:42:51.259Z,15
2017-05-25T11:44:01.216Z,10
2017-05-25T11:45:11.134Z,10
2017-05-25T11:46:21.089Z,10
2017-05-25T11:47:30.176Z,10
2017-05-25T11:48:40.422Z,10
2017-05-25T11:49:50.649Z,10
2017-05-25T11:51:00.262Z,10
2017-05-25T11:52:09.564Z,10
2017-05-25T11:53:18.864Z,10
2017-05-25T11:54:28.787Z,10
2017-05-25T11:55:38.156Z,15
2017-05-25T11:56:48.286Z,15
2017-05-25T11:57:58.548Z,15
2017-05-25T11:59:08.512Z,10
2017-05-25T12:00:18.134Z,10
2017-05-25T12:01:27.446Z,10
2017-05-25T12:02:37.058Z,10
2017-05-25T12:03:46.676Z,10
2017-05-25T12:04:56.914Z,10
2017-05-25T12:06:06.854Z,10
2017-05-25T12:07:16.488Z,10
2017-05-25T12:08:26.716Z,10
2017-05-25T12:09:36.633Z,10
2017-05-25T12:10:45.934Z,10
2017-05-25T12:11:56.165Z,10
2017-05-25T12:13:06.132Z,10
2017-05-25T12:14:16.362Z,10
2017-05-25T12:15:26.978Z,10
2017-05-25T12:16:36.629Z,10
2017-05-25T12:17:46.616Z,10
2017-05-25T12:18:56.353Z,10
2017-05-25T12:20:05.676Z,10
2017-05-25T12:21:15.605Z,10
2017-05-25T12:22:25.220Z,10
2017-05-25T12:23:35.152Z,10
2017-05-25T12:24:45.468Z,10
2017-05-25T12:25:55.439Z,10
2017-05-25T12:27:05.403Z,10
2017-05-25T12:28:15.358Z,10
2017-05-25T12:29:24.994Z,15
2017-05-25T12:30:35.295Z,10
2017-05-25T12:31:44.989Z,10
2017-05-25T12:32:54.614Z,10
2017-05-25T12:34:04.602Z,10
2017-05-25T12:35:14.227Z,10
2017-05-25T12:36:24.137Z,10
2017-05-25T12:37:33.807Z,10
2017-05-25T12:38:44.061Z,10
2017-05-25T12:39:53.997Z,10
2017-05-25T12:41:04.273Z,10
2017-05-25T12:42:14.226Z,10
2017-05-25T12:43:24.534Z,10
2017-05-25T12:44:34.821Z,10
2017-05-25T12:45:44.771Z,10
2017-05-25T12:46:54.131Z,10
2017-05-25T12:48:02.857Z,10
2017-05-25T12:49:12.823Z,10
2017-05-25T12:50:22.485Z,10
2017-05-25T12:51:32.697Z,10
2017-05-25T12:52:42.639Z,10
2017-05-25T12:53:52.580Z,10
2017-05-25T12:55:02.834Z,10
2017-05-25T12:56:12.459Z,10
2017-05-25T12:57:22.106Z,10
2017-05-25T12:58:31.761Z,10
2017-05-25T12:59:41.371Z,10
2017-05-25T13:00:50.989Z,10
2017-05-25T13:02:00.924Z,10
2017-05-25T13:03:10.840Z,10
2017-05-25T13:04:20.764Z,10
2017-05-25T13:05:30.089Z,10
2017-05-25T13:06:39.710Z,10
2017-05-25T13:07:49.936Z,10
2017-05-25T13:08:59.272Z,10
2017-05-25T13:10:08.887Z,10
2017-05-25T13:11:18.810Z,10
2017-05-25T13:12:28.432Z,10
2017-05-25T13:13:38.044Z,10
2017-05-25T13:14:48.258Z,10
2017-05-25T13:15:57.879Z,10
2017-05-25T13:17:07.797Z,10
2017-05-25T13:18:17.117Z,10
2017-05-25T13:19:27.406Z,10
2017-05-25T13:20:36.700Z,10
2017-05-25T13:21:46.315Z,10
2017-05-25T13:22:56.245Z,10
2017-05-25T13:24:06.163Z,10
2017-05-25T13:25:15.472Z,10
2017-05-25T13:26:25.725Z,10
2017-05-25T13:27:35.668Z,10
2017-05-25T13:28:45.933Z,10
2017-05-25T13:29:55.239Z,10
2017-05-25T13:31:05.172Z,10
2017-05-25T13:32:14.803Z,10
2017-05-25T13:33:25.066Z,10
2017-05-25T13:34:35.331Z,10
2017-05-25T13:35:44.968Z,10
2017-05-25T13:36:55.197Z,10
2017-05-25T13:38:04.839Z,10
2017-05-25T13:39:15.081Z,10
2017-05-25T13:40:25.002Z,10
2017-05-25T13:41:34.985Z,10
2017-05-25T13:42:44.905Z,10
2017-05-25T13:43:55.152Z,10
2017-05-25T13:45:04.494Z,10
2017-05-25T13:46:14.478Z,10
2017-05-25T13:47:24.141Z,10
2017-05-25T13:48:34.109Z,10
2017-05-25T13:49:44.036Z,10
2017-05-25T13:50:53.418Z,10
2017-05-25T13:52:03.416Z,10
2017-05-25T13:53:13.749Z,10
2017-05-25T13:54:23.679Z,10
2017-05-25T13:55:33.370Z,10
2017-05-25T13:56:42.690Z,10
2017-05-25T13:57:52.464Z,10
2017-05-25T13:59:02.411Z,10
2017-05-25T14:00:12.022Z,10
2017-05-25T14:01:21.949Z,10
2017-05-25T14:02:31.563Z,10
2017-05-25T14:03:40.894Z,10
2017-05-25T14:04:50.809Z,10
2017-05-25T14:05:59.805Z,10
2017-05-25T14:07:09.438Z,10
2017-05-25T14:08:19.368Z,10
2017-05-25T14:09:29.293Z,10
2017-05-25T14:10:38.592Z,10
2017-05-25T14:11:48.209Z,10
2017-05-25T14:12:58.140Z,10
2017-05-25T14:14:08.361Z,10
2017-05-25T14:15:18.605Z,10
2017-05-25T14:16:27.912Z,10
2017-05-25T14:17:37.561Z,10
2017-05-25T14:18:47.519Z,10
2017-05-25T14:19:57.146Z,10
2017-05-25T14:21:06.785Z,10
2017-05-25T14:22:16.393Z,10
2017-05-25T14:23:26.664Z,10
2017-05-25T14:24:36.394Z,10
2017-05-25T14:25:46.311Z,10
2017-05-25T14:26:56.552Z,10
2017-05-25T14:28:06.831Z,10
2017-05-25T14:29:16.888Z,10
2017-05-25T14:30:25.936Z,10
2017-05-25T14:31:36.202Z,10
2017-05-25T14:32:45.851Z,10
2017-05-25T14:33:56.095Z,10
2017-05-25T14:35:05.745Z,10
2017-05-25T14:36:15.672Z,10
2017-05-25T14:37:24.746Z,10
2017-05-25T14:38:34.422Z,10
2017-05-25T14:39:45.242Z,10
2017-05-25T14:40:54.869Z,10
2017-05-25T14:42:05.978Z,5
2017-05-25T14:43:15.581Z,10
2017-05-25T14:44:26.172Z,10
2017-05-25T14:45:35.507Z,10
2017-05-25T14:46:45.433Z,10
2017-05-25T14:47:55.357Z,10
2017-05-25T14:49:05.273Z,10
2017-05-25T14:50:14.892Z,10
2017-05-25T14:51:25.137Z,10
2017-05-25T14:52:34.764Z,10
2017-05-25T14:53:44.393Z,10
2017-05-25T14:54:54.318Z,10
2017-05-25T14:56:04.554Z,5
2017-05-25T14:57:14.481Z,10
2017-05-25T14:58:24.405Z,10
2017-05-25T14:59:34.342Z,5
2017-05-25T15:00:43.965Z,5
2017-05-25T15:01:53.578Z,10
2017-05-25T15:03:03.503Z,10
2017-05-25T15:04:13.145Z,10
2017-05-25T15:05:22.752Z,10
2017-05-25T15:06:32.678Z,10
2017-05-25T15:07:42.283Z,5
2017-05-25T15:08:52.207Z,5
2017-05-25T15:10:02.135Z,10
2017-05-25T15:11:12.379Z,10
2017-05-25T15:12:22.331Z,10
2017-05-25T15:13:32.575Z,5
2017-05-25T15:14:42.188Z,5
2017-05-25T15:15:52.140Z,5
2017-05-25T15:17:02.095Z,5
2017-05-25T15:18:12.069Z,5
2017-05-25T15:19:21.702Z,5
2017-05-25T15:20:31.018Z,5
2017-05-25T15:21:41.266Z,5
2017-05-25T15:26:31.385Z,5
2017-05-25T15:27:41.036Z,5
2017-05-25T15:28:50.958Z,5
2017-05-25T15:30:00.571Z,5
2017-05-25T15:31:10.499Z,5
2017-05-25T15:32:20.733Z,5
2017-05-25T15:33:30.680Z,5
2017-05-25T15:34:40.614Z,5
2017-05-25T15:35:50.534Z,5
2017-05-25T15:37:00.143Z,5
2017-05-25T15:38:09.749Z,5
2017-05-25T15:39:19.391Z,5
2017-05-25T15:40:29.644Z,5
2017-05-25T15:41:39.260Z,5
2017-05-25T15:42:49.173Z,5
2017-05-25T15:43:59.098Z,5
2017-05-25T15:45:08.997Z,5
2017-05-25T15:46:18.609Z,5
2017-05-25T15:47:28.520Z,5
2017-05-25T15:48:38.736Z,5
2017-05-25T15:49:48.353Z,5
2017-05-25T15:50:57.971Z,5
2017-05-25T15:52:07.581Z,5
2017-05-25T15:53:17.509Z,5
2017-05-25T15:54:27.433Z,5
2017-05-25T15:55:37.038Z,5
2017-05-25T15:56:47.006Z,5
2017-05-25T15:57:56.939Z,5
2017-05-25T15:59:06.871Z,5
2017-05-25T16:00:16.886Z,5
2017-05-25T16:01:27.147Z,5
2017-05-25T16:02:37.390Z,5
2017-05-25T16:03:47.640Z,5
2017-05-25T16:04:57.566Z,5
2017-05-25T16:06:07.802Z,5
2017-05-25T16:07:17.744Z,5
2017-05-25T16:08:27.360Z,5
2017-05-25T16:09:37.276Z,5
2017-05-25T16:10:47.215Z,5
2017-05-25T16:11:57.139Z,5
2017-05-25T16:13:07.059Z,5
2017-05-25T16:14:16.358Z,5
2017-05-25T16:15:26.273Z,5
2017-05-25T16:16:36.518Z,5
2017-05-25T16:17:45.836Z,5
2017-05-25T16:18:55.152Z,5
2017-05-25T16:20:05.076Z,5
2017-05-25T16:21:14.390Z,5
2017-05-25T16:22:24.628Z,5
2017-05-25T16:23:34.255Z,5
2017-05-25T16:24:43.868Z,5
2017-05-25T16:25:53.783Z,5
2017-05-25T16:27:02.788Z,5
2017-05-25T16:28:12.419Z,5
2017-05-25T16:29:21.787Z,5
2017-05-25T16:30:32.027Z,5
2017-05-25T16:31:41.951Z,5
2017-05-25T16:32:51.574Z,5
2017-05-25T16:34:01.872Z,5
2017-05-25T16:35:12.175Z,5
2017-05-25T16:36:21.192Z,5
2017-05-25T16:37:31.415Z,5
2017-05-25T16:38:41.018Z,5
2017-05-25T16:39:50.633Z,5
2017-05-25T16:41:00.580Z,5
2017-05-25T16:42:10.404Z,5
2017-05-25T16:43:20.335Z,5
2017-05-25T16:44:30.257Z,5
2017-05-25T16:45:40.223Z,5